Kiripotib Landing Site

Jump to: basic info | weather | comments

Related pages: nearby airports | nearby navaids

Basic information (top)

Location: lon -23.328300, lat 17.946400, elev 4,475 ft / 1,364 m msl
Status: small_airport

Weather (top)

Current conditions for Hosea Kutako International Airport 57nm (106km) NNW (rec'd 2014/04/16 11:00Z):

FYWH 161100Z 00000KT 9999 FEW025CB BKN030TCU 23/09 Q1025

Airport forecast for Hosea Kutako International Airport 57nm (106km) NNW (rec'd 2014/04/15 12:19Z):

TAF COR FYWH 151210Z 1512/1618 11005KT 8000 -TSRA FEW030CB BKN035TCU 
      BECMG 1515/1517 9999 -SHRA FEW030CB BKN090 
      BECMG 1518/1519 NSC 
      BECMG 1609/1611 03008KT 9999 BKN035 PROB30 
      TEMPO 1612/1614 -TSRA FEW030CB 
      BECMG 1617/1618 SCT030

Latest comments (top)

More details: Once can also land in the nearby salt ... [read]

Kiripotib Landing Strip Details: GPS location: S 23° 19' 50'' E 17° ... [read]

More... (top)

See also NOTAMs and nearby airports and navaids, or visit the Kiripotib Landing Site page at the main OurAirports website..